Aubenas-Ardeche Meridional Airport


Codes: LFHO/OBS
Name: Aubenas-Ardeche Meridional Airport
City: Aubenas/Ardeche Meridional
Country: France
Elevation: 923 ft.

Photos at Aubenas-Ardeche Meridional Airport


   Photos courtesy of SpottingLog. You can add your own sightings and photos by signing up for a free trial today.



No photos found.

Weather at Aubenas-Ardeche Meridional Airport


Time (UTC)DescriptionTempratureWindCloud coverageVisibilityPressureHumidity
26-Jun-2024 00:00Moderate Rain18°C2 mph, W99%5970m1013hPa99%
26-Jun-2024 03:00Light Rain18°C0 mph, NW99%10000m1013hPa98%
26-Jun-2024 06:00Light Rain18°C2 mph, SW100%10000m1013hPa97%
26-Jun-2024 09:00Light Rain21°C4 mph, SW73%10000m1013hPa78%
26-Jun-2024 12:00Broken Clouds25°C7 mph, S69%10000m1012hPa59%
26-Jun-2024 15:00Overcast Clouds26°C7 mph, S86%10000m1011hPa58%
26-Jun-2024 18:00Broken Clouds23°C7 mph, S79%10000m1012hPa74%
26-Jun-2024 21:00Clear Sky18°C2 mph, SW9%10000m1013hPa92%
27-Jun-2024 00:00Clear Sky17°C2 mph, SW6%10000m1013hPa94%
27-Jun-2024 03:00Clear Sky16°C2 mph, SW4%10000m1013hPa95%
27-Jun-2024 06:00Clear Sky19°C0 mph, E4%10000m1013hPa86%
27-Jun-2024 09:00Scattered Clouds24°C2 mph, SE48%10000m1013hPa69%
27-Jun-2024 12:00Broken Clouds29°C4 mph, SE56%10000m1013hPa53%
27-Jun-2024 15:00Light Rain30°C4 mph, SE29%10000m1012hPa50%
27-Jun-2024 18:00Light Rain27°C4 mph, S37%10000m1013hPa68%
27-Jun-2024 21:00Light Rain21°C2 mph, NW60%10000m1015hPa87%
28-Jun-2024 00:00Broken Clouds21°C2 mph, N76%10000m1015hPa86%
28-Jun-2024 03:00Overcast Clouds20°C2 mph, NW100%10000m1015hPa87%
28-Jun-2024 06:00Overcast Clouds22°C2 mph, NW99%10000m1016hPa82%
28-Jun-2024 09:00Overcast Clouds27°C4 mph, SE92%10000m1016hPa67%
28-Jun-2024 12:00Broken Clouds30°C4 mph, SE67%10000m1016hPa54%
28-Jun-2024 15:00Few Clouds31°C7 mph, S20%10000m1014hPa49%
28-Jun-2024 18:00Few Clouds27°C4 mph, S12%10000m1016hPa66%
28-Jun-2024 21:00Broken Clouds20°C2 mph, W56%10000m1017hPa74%
29-Jun-2024 00:00Broken Clouds18°C0 mph, W68%10000m1016hPa83%
29-Jun-2024 03:00Broken Clouds17°C2 mph, W55%10000m1016hPa87%
29-Jun-2024 06:00Broken Clouds19°C2 mph, NW71%10000m1015hPa77%
29-Jun-2024 09:00Overcast Clouds23°C4 mph, SW100%10000m1015hPa70%
29-Jun-2024 12:00Overcast Clouds24°C4 mph, SW100%10000m1012hPa71%
29-Jun-2024 15:00Overcast Clouds25°C13 mph, S96%10000m1010hPa62%
29-Jun-2024 18:00Light Rain22°C9 mph, SW85%10000m1011hPa86%
29-Jun-2024 21:00Light Rain19°C2 mph, SW48%10000m1013hPa97%
30-Jun-2024 00:00Scattered Clouds18°C2 mph, NW49%10000m1013hPa95%
30-Jun-2024 03:00Scattered Clouds16°C4 mph, NW35%10000m1013hPa90%
30-Jun-2024 06:00Light Rain19°C2 mph, NW58%10000m1013hPa85%
30-Jun-2024 09:00Light Rain21°C2 mph, NW75%10000m1013hPa70%
30-Jun-2024 12:00Broken Clouds26°C4 mph, NW64%10000m1012hPa50%
30-Jun-2024 15:00Light Rain28°C7 mph, W79%10000m1011hPa41%
30-Jun-2024 18:00Broken Clouds21°C9 mph, W71%10000m1012hPa60%
30-Jun-2024 21:00Scattered Clouds16°C7 mph, NW30%10000m1015hPa72%